Time,TemperatureF,DewpointF,PressureIn,WindDirection,WindDirectionDegrees,WindSpeedMPH,WindSpeedGustMPH,Humidity,HourlyPrecipIn,Conditions,Clouds,dailyrainin,SolarRadiationWatts/m^2,SoftwareType,DateUTC
2013-08-12 00:37:00,70.0,53.0,-100.00,WNW,295,5.0,12.0,55,0.00,,,0.08,594.000000,,2013-08-12 00:37:00,
2013-08-12 01:03:00,70.0,53.0,-100.00,WNW,295,5.0,12.0,55,0.00,,,0.08,594.000000,,2013-08-12 01:03:00,
2013-08-12 01:39:00,69.0,54.0,-100.00,WNW,298,5.0,12.0,59,0.00,,,0.00,436.000000,,2013-08-12 01:39:00,
2013-08-12 01:48:00,69.0,54.0,-100.00,WNW,298,5.0,12.0,59,0.00,,,0.00,436.000000,,2013-08-12 01:48:00,
2013-08-12 01:55:00,69.0,54.0,-100.00,WNW,298,5.0,12.0,59,0.00,,,0.00,436.000000,,2013-08-12 01:55:00,
2013-08-12 02:03:00,69.0,54.0,-100.00,WNW,298,5.0,12.0,59,0.00,,,0.00,436.000000,,2013-08-12 02:03:00,
2013-08-12 02:37:00,67.0,56.0,-100.00,WNW,284,3.0,11.0,68,0.00,,,0.00,260.000000,,2013-08-12 02:37:00,
2013-08-12 02:48:00,67.0,56.0,-100.00,WNW,284,3.0,11.0,68,0.00,,,0.00,260.000000,,2013-08-12 02:48:00,
2013-08-12 03:39:00,60.0,55.0,-100.00,NW,308,3.0,9.0,84,0.00,,,-99.99,84.000000,,2013-08-12 03:39:00,
2013-08-12 03:47:00,60.0,55.0,-100.00,NW,308,3.0,9.0,84,0.00,,,-99.99,84.000000,,2013-08-12 03:47:00,
2013-08-12 03:59:00,60.0,55.0,-100.00,NW,308,3.0,9.0,84,0.00,,,-99.99,84.000000,,2013-08-12 03:59:00,
2013-08-12 04:02:00,60.0,55.0,-100.00,NW,308,3.0,9.0,84,0.00,,,-99.99,84.000000,,2013-08-12 04:02:00,
2013-08-12 04:33:00,57.0,55.0,-100.00,NE,34,1.0,6.0,92,0.00,,,0.00,3.000000,,2013-08-12 04:33:00,
2013-08-12 04:43:00,57.0,55.0,-100.00,NE,34,1.0,6.0,92,0.00,,,0.00,3.000000,,2013-08-12 04:43:00,
2013-08-12 04:52:00,57.0,55.0,-100.00,NE,34,1.0,6.0,92,0.00,,,0.00,3.000000,,2013-08-12 04:52:00,
2013-08-12 05:02:00,57.0,55.0,-100.00,NE,34,1.0,6.0,92,0.00,,,0.00,3.000000,,2013-08-12 05:02:00,
2013-08-12 05:32:00,55.0,54.0,-100.00,NE,41,1.0,3.0,95,0.00,,,0.00,0.000000,,2013-08-12 05:32:00,
2013-08-12 05:43:00,55.0,54.0,-100.00,NE,41,1.0,3.0,95,0.00,,,0.00,0.000000,,2013-08-12 05:43:00,
2013-08-12 05:52:00,55.0,54.0,-100.00,NE,41,1.0,3.0,95,0.00,,,0.00,0.000000,,2013-08-12 05:52:00,
2013-08-12 06:01:00,55.0,54.0,-100.00,NE,41,1.0,3.0,95,0.00,,,0.00,0.000000,,2013-08-12 06:01:00,
2013-08-12 06:32:00,55.0,54.0,-100.00,NNE,21,0.0,3.0,97,0.00,,,0.00,0.000000,,2013-08-12 06:32:00,
2013-08-12 06:42:00,55.0,54.0,-100.00,NNE,21,0.0,3.0,97,0.00,,,0.00,0.000000,,2013-08-12 06:42:00,
2013-08-12 06:52:00,55.0,54.0,-100.00,NNE,21,0.0,3.0,97,0.00,,,0.00,0.000000,,2013-08-12 06:52:00,
2013-08-12 07:01:00,55.0,54.0,-100.00,NNE,21,0.0,3.0,97,0.00,,,0.00,0.000000,,2013-08-12 07:01:00,
2013-08-12 07:33:00,56.0,55.0,-100.00,NNW,343,1.0,3.0,96,0.00,,,0.00,0.000000,,2013-08-12 07:33:00,
2013-08-12 07:43:00,56.0,55.0,-100.00,NNW,343,1.0,3.0,96,0.00,,,0.00,0.000000,,2013-08-12 07:43:00,
2013-08-12 07:52:00,56.0,55.0,-100.00,NNW,343,1.0,3.0,96,0.00,,,0.00,0.000000,,2013-08-12 07:52:00,
2013-08-12 08:02:00,56.0,55.0,-100.00,NNW,343,1.0,3.0,96,0.00,,,0.00,0.000000,,2013-08-12 08:02:00,
2013-08-12 08:33:00,56.0,55.0,-100.00,West,266,0.0,3.0,95,0.00,,,0.00,0.000000,,2013-08-12 08:33:00,
2013-08-12 08:43:00,56.0,55.0,-100.00,West,266,0.0,3.0,95,0.00,,,0.00,0.000000,,2013-08-12 08:43:00,
2013-08-12 08:53:00,56.0,55.0,-100.00,West,266,0.0,3.0,95,0.00,,,0.00,0.000000,,2013-08-12 08:53:00,
2013-08-12 09:02:00,56.0,55.0,-100.00,West,266,0.0,3.0,95,0.00,,,0.00,0.000000,,2013-08-12 09:02:00,
2013-08-12 09:32:00,53.0,52.0,-100.00,ENE,65,1.0,3.0,97,0.00,,,0.00,0.000000,,2013-08-12 09:32:00,
2013-08-12 09:43:00,53.0,52.0,-100.00,ENE,65,1.0,3.0,97,0.00,,,0.00,0.000000,,2013-08-12 09:43:00,
2013-08-12 09:53:00,53.0,52.0,-100.00,ENE,65,1.0,3.0,97,0.00,,,0.00,0.000000,,2013-08-12 09:53:00,
2013-08-12 10:01:00,53.0,52.0,-100.00,ENE,65,1.0,3.0,97,0.00,,,0.00,0.000000,,2013-08-12 10:01:00,
2013-08-12 10:32:00,53.0,52.0,-100.00,NNE,33,1.0,2.0,97,0.00,,,0.00,0.000000,,2013-08-12 10:32:00,
2013-08-12 10:43:00,53.0,52.0,-100.00,NNE,33,1.0,2.0,97,0.00,,,0.00,0.000000,,2013-08-12 10:43:00,
2013-08-12 10:52:00,53.0,52.0,-100.00,NNE,33,1.0,2.0,97,0.00,,,0.00,0.000000,,2013-08-12 10:52:00,
2013-08-12 11:01:00,53.0,52.0,-100.00,NNE,33,1.0,2.0,97,0.00,,,0.00,0.000000,,2013-08-12 11:01:00,
2013-08-12 11:32:00,53.0,53.0,-100.00,North,8,1.0,3.0,99,0.00,,,0.00,0.000000,,2013-08-12 11:32:00,
2013-08-12 11:42:00,53.0,53.0,-100.00,North,8,1.0,3.0,99,0.00,,,0.00,0.000000,,2013-08-12 11:42:00,
2013-08-12 11:53:00,53.0,53.0,-100.00,North,8,1.0,3.0,99,0.00,,,0.00,0.000000,,2013-08-12 11:53:00,
2013-08-12 12:02:00,53.0,53.0,-100.00,North,8,1.0,3.0,99,0.00,,,0.00,0.000000,,2013-08-12 12:02:00,
2013-08-12 12:32:00,54.0,53.0,-100.00,North,7,1.0,3.0,97,0.00,,,0.00,0.000000,,2013-08-12 12:32:00,
2013-08-12 12:43:00,54.0,53.0,-100.00,North,7,1.0,3.0,97,0.00,,,0.00,0.000000,,2013-08-12 12:43:00,
2013-08-12 12:52:00,54.0,53.0,-100.00,North,7,1.0,3.0,97,0.00,,,0.00,0.000000,,2013-08-12 12:52:00,
2013-08-12 13:01:00,54.0,53.0,-100.00,North,7,1.0,3.0,97,0.00,,,0.00,0.000000,,2013-08-12 13:01:00,
2013-08-12 13:43:00,54.0,53.0,-100.00,North,360,0.0,2.0,97,0.00,,,0.00,0.000000,,2013-08-12 13:43:00,
2013-08-12 13:53:00,54.0,53.0,-100.00,North,360,0.0,2.0,97,0.00,,,0.00,0.000000,,2013-08-12 13:53:00,
2013-08-12 14:01:00,54.0,53.0,-100.00,North,360,0.0,2.0,97,0.00,,,0.00,0.000000,,2013-08-12 14:01:00,
2013-08-12 14:32:00,55.0,54.0,-100.00,West,279,0.0,2.0,97,0.00,,,0.00,13.000000,,2013-08-12 14:32:00,
2013-08-12 14:42:00,55.0,54.0,-100.00,West,279,0.0,2.0,97,0.00,,,0.00,13.000000,,2013-08-12 14:42:00,
2013-08-12 14:52:00,55.0,54.0,-100.00,West,279,0.0,2.0,97,0.00,,,0.00,13.000000,,2013-08-12 14:52:00,
2013-08-12 15:01:00,55.0,54.0,-100.00,West,279,0.0,2.0,97,0.00,,,0.00,13.000000,,2013-08-12 15:01:00,
2013-08-12 15:43:00,56.0,55.0,-100.00,NW,312,0.0,2.0,96,0.00,,,0.00,65.000000,,2013-08-12 15:43:00,
2013-08-12 15:52:00,56.0,55.0,-100.00,NW,312,0.0,2.0,96,0.00,,,0.00,65.000000,,2013-08-12 15:52:00,
2013-08-12 16:01:00,56.0,55.0,-100.00,NW,312,0.0,2.0,96,0.00,,,0.00,65.000000,,2013-08-12 16:01:00,
2013-08-12 16:33:00,58.0,55.0,-100.00,West,262,1.0,4.0,89,0.00,,,0.00,147.000000,,2013-08-12 16:33:00,
2013-08-12 16:43:00,58.0,55.0,-100.00,West,262,1.0,4.0,89,0.00,,,0.00,147.000000,,2013-08-12 16:43:00,
2013-08-12 16:53:00,58.0,55.0,-100.00,West,262,1.0,4.0,89,0.00,,,0.00,147.000000,,2013-08-12 16:53:00,
2013-08-12 17:01:00,58.0,55.0,-100.00,West,262,1.0,4.0,89,0.00,,,0.00,147.000000,,2013-08-12 17:01:00,
2013-08-12 17:43:00,63.0,55.0,-100.00,WSW,246,2.0,5.0,74,0.00,,,0.00,352.000000,,2013-08-12 17:43:00,
2013-08-12 17:52:00,63.0,55.0,-100.00,WSW,246,2.0,5.0,74,0.00,,,0.00,352.000000,,2013-08-12 17:52:00,
2013-08-12 18:01:00,63.0,55.0,-100.00,WSW,246,2.0,5.0,74,0.00,,,0.00,352.000000,,2013-08-12 18:01:00,
2013-08-12 18:32:00,66.0,56.0,-100.00,WSW,257,3.0,8.0,70,0.00,,,0.00,503.000000,,2013-08-12 18:32:00,
2013-08-12 18:43:00,66.0,56.0,-100.00,WSW,257,3.0,8.0,70,0.00,,,0.00,503.000000,,2013-08-12 18:43:00,
2013-08-12 18:52:00,66.0,56.0,-100.00,WSW,257,3.0,8.0,70,0.00,,,0.00,503.000000,,2013-08-12 18:52:00,
2013-08-12 19:01:00,66.0,56.0,-100.00,WSW,257,3.0,8.0,70,0.00,,,0.00,503.000000,,2013-08-12 19:01:00,
2013-08-12 19:43:00,69.0,56.0,-100.00,West,263,3.0,7.0,64,0.00,,,0.00,784.000000,,2013-08-12 19:43:00,
2013-08-12 19:52:00,69.0,56.0,-100.00,West,263,3.0,7.0,64,0.00,,,0.00,784.000000,,2013-08-12 19:52:00,
2013-08-12 20:02:00,69.0,56.0,-100.00,West,263,3.0,7.0,64,0.00,,,0.00,784.000000,,2013-08-12 20:02:00,
2013-08-12 20:32:00,70.0,56.0,-100.00,WNW,294,4.0,12.0,61,0.00,,,0.00,845.000000,,2013-08-12 20:32:00,
2013-08-12 20:42:00,70.0,56.0,-100.00,WNW,294,4.0,12.0,61,0.00,,,0.00,845.000000,,2013-08-12 20:42:00,
2013-08-12 20:52:00,70.0,56.0,-100.00,WNW,294,4.0,12.0,61,0.00,,,0.00,845.000000,,2013-08-12 20:52:00,
2013-08-12 21:01:00,70.0,56.0,-100.00,WNW,294,4.0,12.0,61,0.00,,,0.00,845.000000,,2013-08-12 21:01:00,
2013-08-12 21:32:00,71.0,57.0,-100.00,WNW,296,5.0,12.0,61,0.00,,,0.00,812.000000,,2013-08-12 21:32:00,
2013-08-12 21:43:00,71.0,57.0,-100.00,WNW,296,5.0,12.0,61,0.00,,,0.00,812.000000,,2013-08-12 21:43:00,
2013-08-12 21:52:00,71.0,57.0,-100.00,WNW,296,5.0,12.0,61,0.00,,,0.00,812.000000,,2013-08-12 21:52:00,
2013-08-12 22:02:00,71.0,57.0,-100.00,WNW,296,5.0,12.0,61,0.00,,,0.00,812.000000,,2013-08-12 22:02:00,
2013-08-12 22:32:00,71.0,57.0,-100.00,WNW,282,4.0,13.0,62,0.00,,,0.00,823.000000,,2013-08-12 22:32:00,
2013-08-12 22:43:00,71.0,57.0,-100.00,WNW,282,4.0,13.0,62,0.00,,,0.00,823.000000,,2013-08-12 22:43:00,
2013-08-12 22:53:00,71.0,57.0,-100.00,WNW,282,4.0,13.0,62,0.00,,,0.00,823.000000,,2013-08-12 22:53:00,
2013-08-12 23:01:00,71.0,57.0,-100.00,WNW,282,4.0,13.0,62,0.00,,,0.00,823.000000,,2013-08-12 23:01:00,
2013-08-12 23:43:00,71.0,56.0,-100.00,WNW,282,5.0,12.0,60,0.00,,,0.00,730.000000,,2013-08-12 23:43:00,
2013-08-12 23:53:00,71.0,56.0,-100.00,WNW,282,5.0,12.0,60,0.00,,,0.00,730.000000,,2013-08-12 23:53:00,